sensor_id;sensor_type;location;lat;lon;timestamp;pressure;altitude;pressure_sealevel;temperature;humidity
28000;BME280;15328;50.860;10.562;2022-10-04T00:02:45;97267.13;;;10.63;66.11
28000;BME280;15328;50.860;10.562;2022-10-04T00:07:50;97261.41;;;10.66;66.62
28000;BME280;15328;50.860;10.562;2022-10-04T00:13:00;97259.00;;;10.71;65.96
28000;BME280;15328;50.860;10.562;2022-10-04T00:28:28;97272.63;;;10.55;65.35
28000;BME280;15328;50.860;10.562;2022-10-04T00:33:41;97270.56;;;10.50;65.46
28000;BME280;15328;50.860;10.562;2022-10-04T00:38:41;97263.13;;;10.39;66.28
28000;BME280;15328;50.860;10.562;2022-10-04T00:43:45;97259.00;;;10.36;65.35
28000;BME280;15328;50.860;10.562;2022-10-04T00:54:20;97250.47;;;10.41;65.02
28000;BME280;15328;50.860;10.562;2022-10-04T00:59:33;97252.44;;;10.32;65.61
28000;BME280;15328;50.860;10.562;2022-10-04T01:04:52;97245.72;;;10.36;65.96
28000;BME280;15328;50.860;10.562;2022-10-04T01:09:57;97247.56;;;10.36;66.55
28000;BME280;15328;50.860;10.562;2022-10-04T01:20:29;97244.25;;;10.27;66.95
28000;BME280;15328;50.860;10.562;2022-10-04T01:25:45;97229.72;;;10.30;67.23
28000;BME280;15328;50.860;10.562;2022-10-04T01:30:45;97226.28;;;10.36;66.54
28000;BME280;15328;50.860;10.562;2022-10-04T01:35:46;97226.69;;;10.39;67.05
28000;BME280;15328;50.860;10.562;2022-10-04T01:40:54;97204.47;;;10.47;67.41
28000;BME280;15328;50.860;10.562;2022-10-04T01:46:05;97209.19;;;10.58;66.64
28000;BME280;15328;50.860;10.562;2022-10-04T01:51:17;97200.81;;;10.61;66.91
28000;BME280;15328;50.860;10.562;2022-10-04T01:56:25;97195.91;;;10.65;67.67
28000;BME280;15328;50.860;10.562;2022-10-04T02:01:39;97203.53;;;10.74;66.84
28000;BME280;15328;50.860;10.562;2022-10-04T02:06:44;97210.50;;;10.75;66.91
28000;BME280;15328;50.860;10.562;2022-10-04T02:11:47;97206.19;;;10.74;67.29
28000;BME280;15328;50.860;10.562;2022-10-04T02:16:52;97211.72;;;10.73;66.48
28000;BME280;15328;50.860;10.562;2022-10-04T02:21:54;97210.09;;;10.78;66.92
28000;BME280;15328;50.860;10.562;2022-10-04T02:26:55;97206.63;;;10.78;67.15
28000;BME280;15328;50.860;10.562;2022-10-04T02:31:55;97202.75;;;10.87;66.72
28000;BME280;15328;50.860;10.562;2022-10-04T02:37:15;97175.28;;;10.80;66.89
28000;BME280;15328;50.860;10.562;2022-10-04T02:42:23;97173.84;;;10.77;67.16
28000;BME280;15328;50.860;10.562;2022-10-04T02:47:29;97160.97;;;10.88;67.41
28000;BME280;15328;50.860;10.562;2022-10-04T02:52:42;97163.88;;;10.99;66.41
28000;BME280;15328;50.860;10.562;2022-10-04T02:57:45;97149.94;;;10.97;66.91
28000;BME280;15328;50.860;10.562;2022-10-04T03:03:30;97173.25;;;10.95;67.28
28000;BME280;15328;50.860;10.562;2022-10-04T03:13:48;97142.59;;;10.99;66.60
28000;BME280;15328;50.860;10.562;2022-10-04T03:18:55;97143.19;;;11.08;66.60
28000;BME280;15328;50.860;10.562;2022-10-04T03:23:56;97138.47;;;11.10;66.53
28000;BME280;15328;50.860;10.562;2022-10-04T03:29:00;97135.22;;;11.01;67.01
28000;BME280;15328;50.860;10.562;2022-10-04T03:34:00;97149.13;;;11.03;66.90
28000;BME280;15328;50.860;10.562;2022-10-04T03:39:06;97147.69;;;11.07;67.42
28000;BME280;15328;50.860;10.562;2022-10-04T03:44:15;97144.63;;;11.10;67.81
28000;BME280;15328;50.860;10.562;2022-10-04T03:49:24;97146.88;;;11.13;67.35
28000;BME280;15328;50.860;10.562;2022-10-04T03:54:29;97131.31;;;11.17;67.56
28000;BME280;15328;50.860;10.562;2022-10-04T03:59:32;97142.81;;;11.24;66.92
28000;BME280;15328;50.860;10.562;2022-10-04T04:09:53;97145.47;;;11.24;66.36
28000;BME280;15328;50.860;10.562;2022-10-04T04:14:58;97143.19;;;11.21;67.12
28000;BME280;15328;50.860;10.562;2022-10-04T04:20:02;97142.16;;;11.22;66.69
28000;BME280;15328;50.860;10.562;2022-10-04T04:25:06;97147.91;;;11.19;66.84
28000;BME280;15328;50.860;10.562;2022-10-04T04:30:15;97148.75;;;11.33;65.86
28000;BME280;15328;50.860;10.562;2022-10-04T04:35:30;97146.06;;;11.20;66.98
28000;BME280;15328;50.860;10.562;2022-10-04T04:40:31;97152.63;;;11.17;66.59
28000;BME280;15328;50.860;10.562;2022-10-04T04:45:35;97144.03;;;11.28;66.86
28000;BME280;15328;50.860;10.562;2022-10-04T04:50:38;97152.03;;;11.28;66.48
28000;BME280;15328;50.860;10.562;2022-10-04T04:55:42;97128.06;;;11.28;67.22
28000;BME280;15328;50.860;10.562;2022-10-04T05:00:48;97112.47;;;11.32;66.98
28000;BME280;15328;50.860;10.562;2022-10-04T05:05:52;97093.63;;;11.40;66.59
28000;BME280;15328;50.860;10.562;2022-10-04T05:15:58;97112.03;;;11.48;65.74
28000;BME280;15328;50.860;10.562;2022-10-04T05:26:26;97133.16;;;11.56;66.11
28000;BME280;15328;50.860;10.562;2022-10-04T05:31:47;97133.13;;;11.50;66.50
28000;BME280;15328;50.860;10.562;2022-10-04T05:47:11;97126.81;;;11.57;66.25
28000;BME280;15328;50.860;10.562;2022-10-04T05:52:15;97131.53;;;11.55;66.44
28000;BME280;15328;50.860;10.562;2022-10-04T05:57:45;97131.09;;;11.58;66.06
28000;BME280;15328;50.860;10.562;2022-10-04T06:03:08;97132.50;;;11.67;66.13
28000;BME280;15328;50.860;10.562;2022-10-04T06:08:21;97140.09;;;11.70;65.80
28000;BME280;15328;50.860;10.562;2022-10-04T06:24:14;97151.41;;;11.79;65.93
28000;BME280;15328;50.860;10.562;2022-10-04T06:29:20;97158.75;;;11.90;65.50
28000;BME280;15328;50.860;10.562;2022-10-04T06:50:35;97162.97;;;12.24;65.12
28000;BME280;15328;50.860;10.562;2022-10-04T06:56:02;97166.81;;;12.42;65.26
28000;BME280;15328;50.860;10.562;2022-10-04T07:06:40;97152.13;;;12.64;63.71
28000;BME280;15328;50.860;10.562;2022-10-04T07:11:50;97152.97;;;12.64;63.33
28000;BME280;15328;50.860;10.562;2022-10-04T07:16:57;97152.91;;;12.71;63.68
28000;BME280;15328;50.860;10.562;2022-10-04T07:27:14;97154.47;;;12.85;62.82
28000;BME280;15328;50.860;10.562;2022-10-04T07:32:21;97144.19;;;12.89;62.27
28000;BME280;15328;50.860;10.562;2022-10-04T07:37:24;97162.25;;;12.93;61.95
28000;BME280;15328;50.860;10.562;2022-10-04T07:42:46;97178.59;;;13.04;62.45
28000;BME280;15328;50.860;10.562;2022-10-04T07:47:48;97173.41;;;13.15;61.78
28000;BME280;15328;50.860;10.562;2022-10-04T07:52:52;97180.09;;;13.31;61.02
28000;BME280;15328;50.860;10.562;2022-10-04T08:08:49;97175.13;;;13.84;59.77
28000;BME280;15328;50.860;10.562;2022-10-04T08:14:12;97162.75;;;14.08;58.74
28000;BME280;15328;50.860;10.562;2022-10-04T08:19:42;97174.66;;;14.31;57.45
28000;BME280;15328;50.860;10.562;2022-10-04T08:30:16;97176.97;;;14.45;56.30
28000;BME280;15328;50.860;10.562;2022-10-04T08:35:38;97185.22;;;14.62;56.31
28000;BME280;15328;50.860;10.562;2022-10-04T09:08:13;97169.19;;;16.51;50.31
28000;BME280;15328;50.860;10.562;2022-10-04T09:12:45;97176.00;;;17.10;49.42
28000;BME280;15328;50.860;10.562;2022-10-04T09:18:00;97186.97;;;17.82;46.62
28000;BME280;15328;50.860;10.562;2022-10-04T09:44:13;97166.47;;;18.80;43.35
28000;BME280;15328;50.860;10.562;2022-10-04T10:05:27;97170.84;;;20.42;39.43
28000;BME280;15328;50.860;10.562;2022-10-04T10:22:19;97168.25;;;21.65;36.49
28000;BME280;15328;50.860;10.562;2022-10-04T10:27:52;97185.81;;;21.83;33.98
28000;BME280;15328;50.860;10.562;2022-10-04T10:33:28;97182.28;;;22.13;34.09
28000;BME280;15328;50.860;10.562;2022-10-04T10:38:46;97184.72;;;22.14;33.63
28000;BME280;15328;50.860;10.562;2022-10-04T10:44:03;97183.38;;;22.02;33.76
28000;BME280;15328;50.860;10.562;2022-10-04T10:49:28;97176.88;;;22.08;34.57
28000;BME280;15328;50.860;10.562;2022-10-04T10:54:40;97180.94;;;22.00;33.52
28000;BME280;15328;50.860;10.562;2022-10-04T11:00:03;97178.25;;;21.80;33.69
28000;BME280;15328;50.860;10.562;2022-10-04T11:27:39;97163.84;;;21.28;34.72
28000;BME280;15328;50.860;10.562;2022-10-04T11:38:24;97165.22;;;21.31;36.01
28000;BME280;15328;50.860;10.562;2022-10-04T11:48:59;97150.78;;;20.90;35.04
28000;BME280;15328;50.860;10.562;2022-10-04T12:10:22;97138.59;;;20.92;35.19
28000;BME280;15328;50.860;10.562;2022-10-04T12:31:14;97103.84;;;20.44;37.40
28000;BME280;15328;50.860;10.562;2022-10-04T12:36:34;97097.31;;;20.40;36.75
28000;BME280;15328;50.860;10.562;2022-10-04T13:20:11;97088.09;;;20.30;36.25
28000;BME280;15328;50.860;10.562;2022-10-04T13:25:49;97092.84;;;20.08;36.32
28000;BME280;15328;50.860;10.562;2022-10-04T13:36:41;97070.16;;;19.62;38.33
28000;BME280;15328;50.860;10.562;2022-10-04T13:47:28;97049.38;;;19.57;38.93
28000;BME280;15328;50.860;10.562;2022-10-04T14:14:31;97027.13;;;18.76;40.64
28000;BME280;15328;50.860;10.562;2022-10-04T14:19:59;97029.47;;;18.67;41.39
28000;BME280;15328;50.860;10.562;2022-10-04T14:42:09;97022.84;;;18.31;43.03
28000;BME280;15328;50.860;10.562;2022-10-04T14:47:38;97023.81;;;18.20;43.41
28000;BME280;15328;50.860;10.562;2022-10-04T15:13:56;97020.78;;;17.73;45.89
28000;BME280;15328;50.860;10.562;2022-10-04T15:24:30;97005.13;;;17.31;46.07
28000;BME280;15328;50.860;10.562;2022-10-04T15:45:51;96996.94;;;16.59;48.47
28000;BME280;15328;50.860;10.562;2022-10-04T16:33:42;96977.66;;;15.53;50.81
28000;BME280;15328;50.860;10.562;2022-10-04T16:38:46;96988.53;;;15.46;50.48
28000;BME280;15328;50.860;10.562;2022-10-04T16:44:22;96976.16;;;15.45;50.18
28000;BME280;15328;50.860;10.562;2022-10-04T16:49:34;96980.03;;;15.38;49.62
28000;BME280;15328;50.860;10.562;2022-10-04T17:16:53;96942.75;;;14.66;51.01
28000;BME280;15328;50.860;10.562;2022-10-04T17:22:07;96961.25;;;14.56;51.57
28000;BME280;15328;50.860;10.562;2022-10-04T17:27:43;96970.94;;;14.39;52.17
28000;BME280;15328;50.860;10.562;2022-10-04T17:33:20;96992.81;;;14.36;52.54
28000;BME280;15328;50.860;10.562;2022-10-04T17:44:19;96990.13;;;14.36;52.61
28000;BME280;15328;50.860;10.562;2022-10-04T17:54:58;96992.22;;;14.34;53.75
28000;BME280;15328;50.860;10.562;2022-10-04T18:00:20;96973.25;;;14.35;53.75
28000;BME280;15328;50.860;10.562;2022-10-04T18:05:30;96978.59;;;14.35;54.00
28000;BME280;15328;50.860;10.562;2022-10-04T18:10:51;96985.69;;;14.30;53.94
28000;BME280;15328;50.860;10.562;2022-10-04T18:16:01;96978.66;;;14.17;54.86
28000;BME280;15328;50.860;10.562;2022-10-04T18:21:27;96981.09;;;14.18;55.33
28000;BME280;15328;50.860;10.562;2022-10-04T18:26:31;96983.09;;;14.23;54.27
28000;BME280;15328;50.860;10.562;2022-10-04T18:31:37;96965.16;;;14.12;55.17
28000;BME280;15328;50.860;10.562;2022-10-04T18:47:17;96987.69;;;14.04;55.76
28000;BME280;15328;50.860;10.562;2022-10-04T18:52:36;96999.09;;;14.11;55.13
28000;BME280;15328;50.860;10.562;2022-10-04T18:57:44;97000.50;;;14.14;55.81
28000;BME280;15328;50.860;10.562;2022-10-04T19:08:44;97007.47;;;14.03;55.82
28000;BME280;15328;50.860;10.562;2022-10-04T19:30:02;97018.94;;;13.74;57.15
28000;BME280;15328;50.860;10.562;2022-10-04T19:35:18;97028.59;;;13.75;56.44
28000;BME280;15328;50.860;10.562;2022-10-04T19:40:32;97020.84;;;13.85;55.64
28000;BME280;15328;50.860;10.562;2022-10-04T19:46:12;97012.75;;;13.73;56.41
28000;BME280;15328;50.860;10.562;2022-10-04T19:51:46;97013.94;;;13.77;57.14
28000;BME280;15328;50.860;10.562;2022-10-04T19:56:52;97017.13;;;13.86;56.71
28000;BME280;15328;50.860;10.562;2022-10-04T20:01:54;97009.25;;;13.91;56.02
28000;BME280;15328;50.860;10.562;2022-10-04T20:06:56;97002.78;;;13.80;56.47
28000;BME280;15328;50.860;10.562;2022-10-04T20:11:58;97023.28;;;13.86;55.78
28000;BME280;15328;50.860;10.562;2022-10-04T20:43:25;97027.69;;;13.99;55.06
28000;BME280;15328;50.860;10.562;2022-10-04T20:48:27;97009.53;;;14.01;55.14
28000;BME280;15328;50.860;10.562;2022-10-04T20:53:30;97021.06;;;14.02;54.42
28000;BME280;15328;50.860;10.562;2022-10-04T20:58:32;97018.44;;;13.95;54.57
28000;BME280;15328;50.860;10.562;2022-10-04T21:03:34;97037.47;;;14.05;54.56
28000;BME280;15328;50.860;10.562;2022-10-04T21:08:36;97015.03;;;14.06;53.73
28000;BME280;15328;50.860;10.562;2022-10-04T21:13:39;97005.63;;;14.15;53.70
28000;BME280;15328;50.860;10.562;2022-10-04T21:18:41;97007.03;;;14.18;53.46
28000;BME280;15328;50.860;10.562;2022-10-04T21:23:41;96994.56;;;14.12;53.93
28000;BME280;15328;50.860;10.562;2022-10-04T21:28:41;97005.63;;;14.15;53.50
28000;BME280;15328;50.860;10.562;2022-10-04T21:33:42;96959.81;;;14.23;52.94
28000;BME280;15328;50.860;10.562;2022-10-04T21:38:42;96957.03;;;14.18;53.17
28000;BME280;15328;50.860;10.562;2022-10-04T21:43:42;96946.59;;;14.29;53.35
28000;BME280;15328;50.860;10.562;2022-10-04T21:48:43;96937.25;;;14.19;53.32
28000;BME280;15328;50.860;10.562;2022-10-04T21:53:43;96941.56;;;14.20;53.49
28000;BME280;15328;50.860;10.562;2022-10-04T21:58:43;96927.59;;;14.18;53.60
28000;BME280;15328;50.860;10.562;2022-10-04T22:03:44;96907.81;;;14.08;54.64
28000;BME280;15328;50.860;10.562;2022-10-04T22:08:44;96922.00;;;14.08;54.19
28000;BME280;15328;50.860;10.562;2022-10-04T22:13:45;96916.53;;;14.15;53.73
28000;BME280;15328;50.860;10.562;2022-10-04T22:18:45;96912.94;;;14.21;54.03
28000;BME280;15328;50.860;10.562;2022-10-04T22:23:46;96928.22;;;14.32;52.96
28000;BME280;15328;50.860;10.562;2022-10-04T22:28:52;96892.91;;;14.12;53.26
28000;BME280;15328;50.860;10.562;2022-10-04T22:33:53;96886.88;;;14.16;53.91
28000;BME280;15328;50.860;10.562;2022-10-04T22:44:29;96888.09;;;13.90;54.33
28000;BME280;15328;50.860;10.562;2022-10-04T22:49:33;96894.22;;;13.79;54.30
28000;BME280;15328;50.860;10.562;2022-10-04T22:54:34;96871.81;;;13.92;54.01
28000;BME280;15328;50.860;10.562;2022-10-04T22:59:40;96869.53;;;14.07;53.90
28000;BME280;15328;50.860;10.562;2022-10-04T23:04:52;96851.16;;;13.99;54.21
28000;BME280;15328;50.860;10.562;2022-10-04T23:09:53;96848.31;;;13.94;54.37
28000;BME280;15328;50.860;10.562;2022-10-04T23:14:53;96858.66;;;13.90;54.09
28000;BME280;15328;50.860;10.562;2022-10-04T23:19:56;96838.78;;;13.86;54.85
28000;BME280;15328;50.860;10.562;2022-10-04T23:24:57;96840.19;;;13.89;54.99
28000;BME280;15328;50.860;10.562;2022-10-04T23:30:00;96843.41;;;13.79;55.45
28000;BME280;15328;50.860;10.562;2022-10-04T23:35:19;96837.16;;;13.55;55.98
28000;BME280;15328;50.860;10.562;2022-10-04T23:40:23;96848.53;;;13.81;56.29
28000;BME280;15328;50.860;10.562;2022-10-04T23:45:25;96857.25;;;13.76;55.54
28000;BME280;15328;50.860;10.562;2022-10-04T23:50:29;96854.09;;;13.79;55.68
28000;BME280;15328;50.860;10.562;2022-10-04T23:55:39;96864.34;;;13.82;55.77
